Time;durP1;ratioP1;P1;durP2;ratioP2;P2;SDS_P1;SDS_P2;PMS_P1;PMS_P2;Temp;Humidity;BMP_temperature;BMP_pressure;BME280_temperature;BME280_humidity;BME280_pressure;Samples;Min_cycle;Max_cycle;Signal;HPM_P1;HPM_P2
2022/12/20 00:59:16;;;;;;;12.77;7.50;;;0.30;99.90;;;;;;5071226;27;2549097;-95
2022/12/20 01:01:52;;;;;;;12.17;6.57;;;0.50;99.90;;;;;;5134309;28;20202;-96
2022/12/20 01:04:28;;;;;;;9.43;6.43;;;0.50;99.90;;;;;;5132194;28;20232;-96
2022/12/20 01:07:01;;;;;;;11.13;6.77;;;0.40;99.90;;;;;;5108271;28;20598;-96
2022/12/20 01:09:34;;;;;;;8.57;5.93;;;0.40;99.90;;;;;;5128937;28;20208;-96
2022/12/20 01:12:06;;;;;;;6.43;5.47;;;0.40;99.90;;;;;;5126418;28;20189;-96
2022/12/20 01:14:39;;;;;;;9.27;6.00;;;0.50;99.90;;;;;;5151731;27;20262;-93
2022/12/20 01:17:11;;;;;;;7.93;5.97;;;0.40;99.90;;;;;;5153445;27;20209;-96
2022/12/20 01:19:43;;;;;;;10.50;6.43;;;0.40;99.90;;;;;;5146994;27;20197;-95
2022/12/20 01:22:14;;;;;;;13.87;6.50;;;0.40;99.90;;;;;;5140932;28;20186;-96
2022/12/20 01:24:48;;;;;;;11.27;6.47;;;0.40;99.90;;;;;;5144251;27;20186;-96
2022/12/20 01:27:19;;;;;;;9.43;6.30;;;0.40;99.90;;;;;;5139384;27;20292;-95
2022/12/20 01:29:53;;;;;;;9.00;6.63;;;0.40;99.90;;;;;;5138565;28;20206;-95
2022/12/20 01:32:31;;;;;;;9.70;6.47;;;0.40;99.90;;;;;;5135164;28;20626;-96
2022/12/20 01:35:03;;;;;;;8.87;6.23;;;0.40;99.90;;;;;;5117685;28;20216;-96
2022/12/20 01:37:37;;;;;;;9.23;6.37;;;0.40;99.90;;;;;;5130493;28;20198;-95
2022/12/20 01:40:12;;;;;;;12.30;7.07;;;0.40;99.90;;;;;;5123440;28;20205;-96
2022/12/20 01:42:45;;;;;;;9.73;6.40;;;0.40;99.90;;;;;;5120861;28;20205;-96
2022/12/20 01:45:29;;;;;;;10.53;7.70;;;0.40;99.90;;;;;;5133544;28;20266;-95
2022/12/20 01:48:03;;;;;;;10.90;7.50;;;0.40;99.90;;;;;;5135516;28;20285;-95
2022/12/20 01:50:37;;;;;;;9.87;7.23;;;0.30;99.90;;;;;;5137050;28;20202;-95
2022/12/20 01:53:09;;;;;;;11.50;7.63;;;0.30;99.90;;;;;;5125851;28;20676;-95
2022/12/20 01:55:41;;;;;;;11.67;6.83;;;0.40;99.90;;;;;;5131795;28;20206;-94
2022/12/20 01:58:15;;;;;;;12.90;7.07;;;0.40;99.90;;;;;;5115082;28;20230;-94
2022/12/20 02:00:50;;;;;;;11.10;7.27;;;0.40;99.90;;;;;;5126073;28;20240;-94
2022/12/20 02:03:21;;;;;;;12.13;6.93;;;0.50;99.90;;;;;;5137670;27;20225;-96
2022/12/20 02:05:56;;;;;;;15.43;7.70;;;0.50;99.90;;;;;;5135738;28;20227;-95
2022/12/20 02:08:32;;;;;;;9.27;7.03;;;0.50;99.90;;;;;;5142580;28;20245;-96
2022/12/20 02:11:13;;;;;;;12.47;7.00;;;0.50;99.90;;;;;;5107555;28;20304;-94
2022/12/20 02:13:52;;;;;;;11.37;6.70;;;0.40;99.90;;;;;;5085416;28;20249;-95
2022/12/20 02:16:30;;;;;;;13.97;9.53;;;0.40;99.90;;;;;;5119082;28;20213;-94
2022/12/20 02:19:24;;;;;;;11.47;7.37;;;0.40;99.90;;;;;;5108651;28;20206;-94
2022/12/20 02:22:07;;;;;;;10.07;7.00;;;0.40;99.90;;;;;;5116435;28;20210;-96
2022/12/20 02:25:11;;;;;;;11.97;7.10;;;0.40;99.90;;;;;;5126005;28;20227;-96
2022/12/20 02:28:01;;;;;;;12.13;7.37;;;0.30;99.90;;;;;;5115778;28;20221;-95
2022/12/20 02:30:40;;;;;;;10.13;6.63;;;0.30;99.90;;;;;;5112083;28;20209;-94
2022/12/20 02:33:14;;;;;;;10.80;7.83;;;0.30;99.90;;;;;;5114234;28;20324;-96
2022/12/20 02:36:00;;;;;;;10.00;7.50;;;0.30;99.90;;;;;;5116596;28;20225;-95
2022/12/20 02:38:34;;;;;;;11.70;8.43;;;0.40;99.90;;;;;;5120013;28;20194;-96
2022/12/20 02:41:13;;;;;;;13.87;10.17;;;0.40;99.90;;;;;;5125758;28;20198;-96
2022/12/20 02:46:47;;;;;;;13.73;8.40;;;0.40;99.90;;;;;;5128540;28;20210;-93
2022/12/20 02:49:25;;;;;;;13.50;8.50;;;0.40;99.90;;;;;;5118432;28;20301;-95
2022/12/20 02:51:56;;;;;;;10.90;8.10;;;0.30;99.90;;;;;;5122534;28;20638;-92
2022/12/20 02:54:28;;;;;;;9.20;7.63;;;0.30;99.90;;;;;;5118123;28;20214;-93
2022/12/20 02:57:07;;;;;;;12.50;8.73;;;0.30;99.90;;;;;;5119890;28;20251;-92
2022/12/20 02:59:42;;;;;;;10.53;8.07;;;0.40;99.90;;;;;;5119945;28;20838;-92
2022/12/20 03:02:17;;;;;;;11.73;8.57;;;0.40;99.90;;;;;;5114415;28;20206;-92
2022/12/20 03:04:51;;;;;;;12.47;8.80;;;0.40;99.90;;;;;;5119656;28;20263;-92
2022/12/20 03:07:22;;;;;;;10.80;8.03;;;0.40;99.90;;;;;;5104625;28;20290;-93
2022/12/20 03:09:53;;;;;;;11.97;8.17;;;0.40;99.90;;;;;;5132641;27;20285;-92
2022/12/20 03:12:24;;;;;;;11.97;8.50;;;0.40;99.90;;;;;;5138841;27;20194;-92
2022/12/20 03:14:59;;;;;;;11.90;7.90;;;0.50;99.90;;;;;;5138518;28;20186;-92
2022/12/20 03:17:31;;;;;;;10.77;7.50;;;0.50;99.90;;;;;;5125901;28;20229;-92
2022/12/20 03:20:05;;;;;;;12.67;8.20;;;0.40;99.90;;;;;;5118237;28;20240;-93
2022/12/20 03:22:48;;;;;;;12.97;9.17;;;0.50;99.90;;;;;;5119403;28;20317;-92
2022/12/20 03:25:22;;;;;;;12.03;8.17;;;0.50;99.90;;;;;;5121840;28;20221;-91
2022/12/20 03:27:52;;;;;;;10.50;7.13;;;0.50;99.90;;;;;;5109806;28;20303;-92
2022/12/20 03:30:24;;;;;;;11.90;7.70;;;0.50;99.90;;;;;;5117238;27;20246;-96
2022/12/20 03:32:59;;;;;;;8.90;6.47;;;0.40;99.90;;;;;;5102929;28;20209;-95
2022/12/20 03:35:31;;;;;;;10.03;7.00;;;0.50;99.90;;;;;;5116542;28;20281;-95
2022/12/20 03:38:11;;;;;;;16.33;7.90;;;0.50;99.90;;;;;;5115672;28;20270;-95
2022/12/20 03:40:45;;;;;;;13.37;7.53;;;0.50;99.90;;;;;;5108624;28;20203;-95
2022/12/20 03:43:17;;;;;;;11.83;7.77;;;0.60;99.90;;;;;;5119387;28;20261;-95
2022/12/20 03:45:51;;;;;;;12.50;8.93;;;0.50;99.90;;;;;;5110552;28;20601;-94
2022/12/20 03:48:28;;;;;;;9.80;7.60;;;0.50;99.90;;;;;;5114369;28;20202;-95
2022/12/20 03:51:03;;;;;;;11.30;6.80;;;0.50;99.90;;;;;;5106291;28;20749;-94
2022/12/20 03:53:37;;;;;;;11.30;7.87;;;0.60;99.90;;;;;;5111105;28;20293;-94
2022/12/20 03:56:14;;;;;;;14.03;7.70;;;0.60;99.90;;;;;;5101250;28;20265;-94
2022/12/20 03:58:48;;;;;;;10.93;8.10;;;0.60;99.90;;;;;;5109609;28;20214;-94
2022/12/20 04:01:23;;;;;;;12.33;8.17;;;0.60;99.90;;;;;;5105571;28;20257;-95
2022/12/20 04:03:57;;;;;;;10.87;7.80;;;0.60;99.90;;;;;;5106577;28;20233;-94
2022/12/20 04:06:29;;;;;;;13.97;8.43;;;0.70;99.90;;;;;;5098017;28;20207;-93
2022/12/20 04:09:02;;;;;;;9.17;6.80;;;0.70;99.90;;;;;;5078292;28;20237;-94
2022/12/20 04:11:34;;;;;;;10.13;7.07;;;0.70;99.90;;;;;;5117598;28;20236;-93
2022/12/20 04:14:06;;;;;;;14.40;10.17;;;0.60;99.90;;;;;;5117774;28;20214;-94
2022/12/20 04:16:37;;;;;;;11.50;8.43;;;0.70;99.90;;;;;;5117505;28;20210;-94
2022/12/20 04:19:20;;;;;;;12.13;7.47;;;0.70;99.90;;;;;;5102883;28;20213;-95
2022/12/20 04:21:57;;;;;;;11.50;8.17;;;0.70;99.90;;;;;;5117804;28;20221;-95
2022/12/20 04:24:35;;;;;;;12.47;7.27;;;0.70;99.90;;;;;;5118076;28;20202;-95
2022/12/20 04:27:06;;;;;;;11.80;8.03;;;0.70;99.90;;;;;;5112422;28;20208;-94
2022/12/20 04:29:38;;;;;;;13.60;7.77;;;0.70;99.90;;;;;;5109023;28;20234;-95
2022/12/20 04:32:09;;;;;;;13.53;7.87;;;0.70;99.90;;;;;;5106578;28;20206;-95
2022/12/20 04:34:43;;;;;;;10.10;7.53;;;0.80;99.90;;;;;;5105537;28;20259;-93
2022/12/20 04:37:14;;;;;;;10.13;6.90;;;0.80;99.90;;;;;;5108034;28;20212;-93
2022/12/20 04:39:46;;;;;;;11.60;7.43;;;0.80;99.90;;;;;;5078822;28;20294;-94
2022/12/20 04:42:17;;;;;;;12.23;8.30;;;0.80;99.90;;;;;;5105558;28;20560;-95
2022/12/20 04:44:52;;;;;;;13.33;8.70;;;0.80;99.90;;;;;;5113917;28;20208;-95
2022/12/20 04:47:25;;;;;;;11.33;6.90;;;0.80;99.90;;;;;;5109810;28;20690;-94
2022/12/20 04:50:03;;;;;;;10.17;6.43;;;0.80;99.90;;;;;;5115234;28;20313;-96
2022/12/20 04:55:22;;;;;;;10.70;6.43;;;0.80;99.90;;;;;;5113791;28;20280;-96
2022/12/20 04:57:55;;;;;;;11.70;6.67;;;0.80;99.90;;;;;;5107899;28;20212;-96
2022/12/20 05:00:37;;;;;;;9.93;6.13;;;0.80;99.90;;;;;;5109184;28;20286;-96
2022/12/20 05:03:09;;;;;;;10.67;6.20;;;0.80;99.90;;;;;;5116674;28;20235;-96
2022/12/20 05:05:44;;;;;;;8.00;4.53;;;0.80;99.90;;;;;;5118744;28;20275;-95
2022/12/20 05:08:19;;;;;;;7.67;3.70;;;0.80;99.90;;;;;;5118075;28;20228;-96
2022/12/20 05:10:51;;;;;;;8.10;4.00;;;0.80;99.90;;;;;;5092432;28;20233;-96
2022/12/20 05:13:23;;;;;;;7.23;4.67;;;0.80;99.90;;;;;;5116285;28;20210;-96
2022/12/20 05:15:55;;;;;;;4.20;2.90;;;0.80;99.90;;;;;;5116857;28;20237;-96
2022/12/20 05:18:27;;;;;;;5.27;3.23;;;0.90;99.90;;;;;;5116442;28;20187;-96
2022/12/20 05:26:42;;;;;;;6.57;2.90;;;0.80;99.90;;;;;;5131008;27;20205;-96
2022/12/20 05:29:14;;;;;;;5.70;3.10;;;0.90;99.90;;;;;;5133933;27;20231;-95
2022/12/20 05:34:43;;;;;;;4.37;2.83;;;0.80;99.90;;;;;;5122368;28;20216;-96
2022/12/20 05:37:16;;;;;;;3.30;2.27;;;0.80;99.90;;;;;;5125525;28;20233;-96
2022/12/20 05:39:49;;;;;;;4.23;2.00;;;0.80;99.90;;;;;;5122696;28;20231;-95
2022/12/20 05:42:22;;;;;;;5.10;2.33;;;0.80;99.90;;;;;;5130702;28;20186;-95
2022/12/20 05:44:57;;;;;;;4.07;1.97;;;0.80;99.90;;;;;;5138204;28;20210;-96
2022/12/20 05:47:32;;;;;;;2.43;1.73;;;0.70;99.90;;;;;;5114208;27;20257;-96
2022/12/20 05:50:04;;;;;;;2.93;2.30;;;0.80;99.90;;;;;;5120707;28;20281;-96
2022/12/20 05:52:40;;;;;;;4.40;2.10;;;0.80;99.90;;;;;;5135168;28;20183;-96
2022/12/20 05:55:13;;;;;;;6.17;2.20;;;0.80;99.90;;;;;;5131389;27;20196;-96
2022/12/20 05:57:52;;;;;;;4.87;2.00;;;0.70;99.90;;;;;;5131423;27;20214;-94
2022/12/20 06:00:28;;;;;;;2.60;2.10;;;0.80;99.90;;;;;;5099783;28;20262;-96
2022/12/20 06:03:02;;;;;;;4.07;1.93;;;0.70;99.90;;;;;;5104909;28;20206;-96
2022/12/20 06:05:36;;;;;;;4.63;1.93;;;0.70;99.90;;;;;;5120936;28;20206;-96
2022/12/20 06:08:10;;;;;;;2.10;1.60;;;0.70;99.90;;;;;;5107436;28;20205;-96
2022/12/20 06:10:43;;;;;;;2.10;1.80;;;0.70;99.90;;;;;;5128492;28;20234;-96
2022/12/20 06:13:16;;;;;;;2.50;2.10;;;0.70;99.90;;;;;;5118330;28;20208;-93
2022/12/20 06:15:47;;;;;;;2.77;2.20;;;0.70;99.90;;;;;;5123569;28;20205;-96
2022/12/20 06:18:24;;;;;;;3.50;1.97;;;0.70;99.90;;;;;;5132872;28;20206;-96
2022/12/20 06:20:58;;;;;;;4.53;2.40;;;0.70;99.90;;;;;;5139045;28;20258;-96
2022/12/20 06:23:33;;;;;;;3.57;2.00;;;0.70;99.90;;;;;;5138243;28;20313;-96
2022/12/20 06:26:08;;;;;;;3.20;1.90;;;0.70;99.90;;;;;;5128866;28;20217;-96
2022/12/20 06:28:41;;;;;;;2.27;1.73;;;0.70;99.90;;;;;;5116360;28;20232;-96
2022/12/20 06:31:13;;;;;;;3.43;2.17;;;0.80;99.90;;;;;;5118905;28;20237;-96
2022/12/20 06:33:47;;;;;;;2.47;2.00;;;0.80;99.90;;;;;;5120121;28;20194;-96
2022/12/20 06:36:24;;;;;;;3.37;2.10;;;0.80;99.90;;;;;;5124907;28;20249;-96
2022/12/20 06:38:59;;;;;;;3.33;2.47;;;0.80;99.90;;;;;;5104171;28;20239;-95
2022/12/20 06:41:38;;;;;;;3.10;1.97;;;0.80;99.90;;;;;;5119134;28;20689;-96
2022/12/20 06:44:10;;;;;;;4.17;2.20;;;0.80;99.90;;;;;;5105059;28;20198;-96
2022/12/20 06:46:42;;;;;;;3.27;2.43;;;0.80;99.90;;;;;;5101300;28;20567;-96
2022/12/20 06:49:26;;;;;;;3.53;2.10;;;0.80;99.90;;;;;;5116194;28;20217;-95
2022/12/20 06:51:58;;;;;;;4.17;2.00;;;0.80;99.90;;;;;;5118600;28;20230;-95
2022/12/20 06:54:32;;;;;;;2.67;1.57;;;0.80;99.90;;;;;;5120417;28;20289;-96
2022/12/20 06:57:05;;;;;;;2.83;1.70;;;0.80;99.90;;;;;;5117540;28;20259;-95
2022/12/20 07:02:28;;;;;;;2.87;2.00;;;0.80;99.90;;;;;;5122099;28;20218;-96
2022/12/20 07:05:03;;;;;;;2.83;1.40;;;0.80;99.90;;;;;;5120353;28;20202;-96
2022/12/20 07:07:35;;;;;;;2.50;1.40;;;0.70;99.90;;;;;;5121560;28;20230;-96
2022/12/20 07:10:17;;;;;;;1.77;1.47;;;0.70;99.90;;;;;;5120814;28;20274;-96
2022/12/20 07:13:00;;;;;;;1.93;1.30;;;0.70;99.90;;;;;;5121760;28;20229;-96
2022/12/20 07:15:32;;;;;;;2.47;1.40;;;0.70;99.90;;;;;;5122059;28;20237;-96
2022/12/20 07:18:10;;;;;;;4.83;1.50;;;0.60;99.90;;;;;;5121384;28;20202;-96
2022/12/20 07:20:47;;;;;;;2.67;1.37;;;0.60;99.90;;;;;;5113900;28;20710;-96
2022/12/20 07:23:23;;;;;;;3.03;1.43;;;0.60;99.90;;;;;;5083195;28;20206;-96
2022/12/20 07:26:02;;;;;;;2.17;1.20;;;0.60;99.90;;;;;;5116157;28;20658;-96
2022/12/20 07:28:34;;;;;;;2.17;1.30;;;0.60;99.90;;;;;;5099935;28;20198;-96
2022/12/20 07:31:07;;;;;;;1.63;1.23;;;0.50;99.90;;;;;;5096210;28;20230;-96
2022/12/20 07:33:45;;;;;;;1.93;1.10;;;0.50;99.90;;;;;;5119794;28;20650;-96
2022/12/20 07:36:17;;;;;;;1.67;1.30;;;0.50;99.90;;;;;;5121273;28;20305;-96
2022/12/20 07:38:49;;;;;;;4.23;1.20;;;0.50;99.90;;;;;;5110283;28;20211;-96
2022/12/20 07:41:25;;;;;;;1.37;1.20;;;0.50;99.90;;;;;;5106721;28;20210;-95
2022/12/20 07:43:58;;;;;;;2.77;1.40;;;0.50;99.90;;;;;;5125583;27;20202;-95
2022/12/20 07:46:30;;;;;;;1.93;1.30;;;0.50;99.90;;;;;;5135042;27;20194;-96
2022/12/20 07:49:02;;;;;;;2.53;1.77;;;0.50;99.90;;;;;;5128128;28;20202;-94
2022/12/20 07:51:37;;;;;;;2.23;1.73;;;0.40;99.90;;;;;;5127782;28;20289;-95
2022/12/20 07:54:19;;;;;;;3.83;1.67;;;0.50;99.90;;;;;;5112704;28;20650;-96
2022/12/20 07:57:00;;;;;;;2.77;1.57;;;0.50;99.90;;;;;;5102233;28;20213;-95
2022/12/20 07:59:40;;;;;;;1.77;1.30;;;0.50;99.90;;;;;;5112237;28;20604;-95
2022/12/20 08:02:18;;;;;;;4.73;1.40;;;0.50;99.90;;;;;;5121914;28;20202;-96
2022/12/20 08:04:51;;;;;;;1.80;1.40;;;0.50;99.90;;;;;;5118199;28;20278;-94
2022/12/20 08:07:23;;;;;;;2.57;1.30;;;0.50;99.90;;;;;;5117127;28;20292;-96
2022/12/20 08:10:07;;;;;;;1.53;1.00;;;0.50;99.90;;;;;;5121348;28;20202;-96
2022/12/20 08:12:43;;;;;;;2.17;1.10;;;0.50;99.90;;;;;;5103066;28;20284;-96
2022/12/20 08:15:18;;;;;;;1.30;1.20;;;0.60;99.90;;;;;;5117489;28;20302;-96
2022/12/20 08:18:01;;;;;;;1.43;1.03;;;0.60;99.90;;;;;;5101433;28;20235;-96
2022/12/20 08:20:35;;;;;;;2.60;1.07;;;0.50;99.90;;;;;;5115449;28;20205;-95
2022/12/20 08:23:15;;;;;;;2.00;1.30;;;0.50;99.90;;;;;;5121057;28;20222;-96
2022/12/20 08:25:47;;;;;;;2.27;1.10;;;0.50;99.90;;;;;;5116697;28;20608;-96
2022/12/20 08:28:32;;;;;;;2.57;1.33;;;0.50;99.90;;;;;;5115813;28;20210;-96
2022/12/20 08:31:06;;;;;;;2.00;1.00;;;0.50;99.90;;;;;;5107307;28;20241;-96
2022/12/20 08:33:40;;;;;;;1.53;1.10;;;0.50;99.90;;;;;;5102115;28;20209;-96
2022/12/20 08:36:14;;;;;;;2.73;1.07;;;0.50;99.90;;;;;;5119729;28;20541;-95
2022/12/20 08:38:47;;;;;;;1.73;1.00;;;0.50;99.90;;;;;;5086873;28;20360;-96
2022/12/20 08:41:21;;;;;;;1.63;0.80;;;0.50;99.90;;;;;;5088981;28;20226;-96
2022/12/20 08:43:55;;;;;;;1.70;0.97;;;0.50;99.90;;;;;;5101919;28;20205;-94
